Time;durP1;ratioP1;P1;durP2;ratioP2;P2;SDS_P1;SDS_P2;PMS_P1;PMS_P2;Temp;Humidity;BMP_temperature;BMP_pressure;BME280_temperature;BME280_humidity;BME280_pressure;Samples;Min_cycle;Max_cycle;Signal;HPM_P1;HPM_P2
2023/09/04 00:01:50;;;;;;;10.85;6.38;;;14.70;99.90;;;;;;5015705;28;20033;-56
2023/09/04 00:04:16;;;;;;;8.88;6.15;;;14.80;99.90;;;;;;5013210;28;20038;-55
2023/09/04 00:06:41;;;;;;;10.98;6.50;;;14.70;99.90;;;;;;5016257;28;20486;-55
2023/09/04 00:09:07;;;;;;;10.65;6.32;;;14.60;99.90;;;;;;5011261;28;20436;-56
2023/09/04 00:11:32;;;;;;;10.63;6.65;;;14.60;99.90;;;;;;5013753;28;20528;-55
2023/09/04 00:13:58;;;;;;;8.48;6.00;;;14.70;99.90;;;;;;5023208;28;20034;-56
2023/09/04 00:16:24;;;;;;;11.65;6.53;;;14.60;99.90;;;;;;5013168;28;20056;-54
2023/09/04 00:18:49;;;;;;;9.70;6.55;;;14.60;99.90;;;;;;5014881;28;20029;-56
2023/09/04 00:21:15;;;;;;;12.43;7.10;;;14.60;99.90;;;;;;5013722;28;20053;-55
2023/09/04 00:23:41;;;;;;;11.10;7.00;;;14.60;99.90;;;;;;5019544;28;20041;-56
2023/09/04 00:26:06;;;;;;;10.90;6.97;;;14.60;99.90;;;;;;5012359;28;20034;-55
2023/09/04 00:28:32;;;;;;;8.18;6.25;;;14.50;99.90;;;;;;5015685;28;20057;-56
2023/09/04 00:30:58;;;;;;;13.10;7.70;;;;;;;;;;5017344;28;20029;-56
2023/09/04 00:33:23;;;;;;;11.60;7.05;;;14.50;99.90;;;;;;5019641;28;20034;-56
2023/09/04 00:35:49;;;;;;;13.27;7.32;;;14.50;99.90;;;;;;5013756;28;20149;-56
2023/09/04 00:38:15;;;;;;;13.38;6.95;;;14.50;99.90;;;;;;5011727;28;20065;-56
2023/09/04 00:40:41;;;;;;;11.50;6.95;;;14.50;99.90;;;;;;5023763;28;20087;-56
2023/09/04 00:43:07;;;;;;;12.43;6.68;;;14.60;99.90;;;;;;5015402;28;20041;-55
2023/09/04 00:45:34;;;;;;;10.02;6.85;;;14.50;99.90;;;;;;5014940;28;20030;-55
2023/09/04 00:48:01;;;;;;;10.45;6.68;;;;;;;;;;5023391;28;20061;-56
2023/09/04 00:50:27;;;;;;;11.43;6.60;;;14.20;99.90;;;;;;5022068;28;20044;-55
2023/09/04 00:52:59;;;;;;;9.98;6.70;;;14.20;99.90;;;;;;5011061;28;20386;-56
2023/09/04 00:55:25;;;;;;;11.35;6.50;;;14.30;99.90;;;;;;5012093;28;20135;-54
2023/09/04 00:57:52;;;;;;;13.48;7.07;;;14.30;99.90;;;;;;4995909;28;20037;-57
2023/09/04 01:00:21;;;;;;;10.50;6.65;;;14.30;99.90;;;;;;5015953;28;20457;-56
2023/09/04 01:02:48;;;;;;;11.73;6.45;;;14.40;99.90;;;;;;5012636;28;20111;-57
2023/09/04 01:05:13;;;;;;;9.55;6.13;;;14.20;99.90;;;;;;5016153;28;20047;-57
2023/09/04 01:07:41;;;;;;;11.90;7.13;;;14.10;99.90;;;;;;5013579;28;20037;-56
2023/09/04 01:10:08;;;;;;;9.75;6.65;;;14.10;99.90;;;;;;5011939;28;20516;-55
2023/09/04 01:12:55;;;;;;;11.88;6.90;;;14.20;99.90;;;;;;5015626;28;20046;-57
2023/09/04 01:15:24;;;;;;;11.85;7.22;;;14.20;99.90;;;;;;5013554;28;20049;-55
2023/09/04 01:17:51;;;;;;;11.73;7.20;;;14.10;99.90;;;;;;5009611;28;20045;-55
2023/09/04 01:20:28;;;;;;;12.02;7.85;;;14.10;99.90;;;;;;5022510;28;20064;-56
2023/09/04 01:22:57;;;;;;;10.57;7.50;;;14.00;99.90;;;;;;4991377;28;20142;-55
2023/09/04 01:25:31;;;;;;;11.05;7.18;;;14.10;99.90;;;;;;5012307;28;20154;-56
2023/09/04 01:28:15;;;;;;;13.40;7.32;;;14.10;99.90;;;;;;5000558;28;20258;-55
2023/09/04 01:30:55;;;;;;;13.23;8.10;;;14.00;99.90;;;;;;5014903;28;20034;-56
2023/09/04 01:33:28;;;;;;;11.68;7.47;;;14.10;99.90;;;;;;5011558;28;20026;-54
2023/09/04 01:35:56;;;;;;;12.70;8.10;;;13.80;99.90;;;;;;5011337;28;20481;-55
2023/09/04 01:38:22;;;;;;;11.57;7.93;;;13.80;99.90;;;;;;5011908;28;20041;-55
2023/09/04 01:40:51;;;;;;;12.48;7.90;;;13.90;99.90;;;;;;5011352;28;20034;-55
2023/09/04 01:43:17;;;;;;;13.77;8.57;;;13.90;99.90;;;;;;5018902;28;20057;-56
2023/09/04 01:45:43;;;;;;;14.07;8.20;;;14.00;99.90;;;;;;5009983;28;20030;-56
2023/09/04 01:48:09;;;;;;;12.57;7.93;;;13.90;99.90;;;;;;5014603;28;20079;-56
2023/09/04 01:50:34;;;;;;;11.52;7.75;;;13.90;99.90;;;;;;5019096;28;20072;-55
2023/09/04 01:53:00;;;;;;;12.30;7.75;;;13.90;99.90;;;;;;5016372;28;20095;-55
2023/09/04 01:55:25;;;;;;;10.63;7.70;;;13.90;99.90;;;;;;5015089;28;20029;-55
2023/09/04 01:57:51;;;;;;;14.20;8.35;;;14.00;99.90;;;;;;5004416;28;20053;-55
2023/09/04 02:00:17;;;;;;;16.95;9.18;;;14.00;99.90;;;;;;5006930;28;20094;-55
2023/09/04 02:02:43;;;;;;;18.73;9.07;;;14.10;99.90;;;;;;5020605;28;20033;-54
2023/09/04 02:05:08;;;;;;;15.35;8.75;;;14.00;99.90;;;;;;5019668;28;20053;-55
2023/09/04 02:07:34;;;;;;;14.65;9.65;;;14.10;99.90;;;;;;5015134;28;20098;-54
2023/09/04 02:09:59;;;;;;;16.58;9.05;;;14.10;99.90;;;;;;5018151;28;20175;-55
2023/09/04 02:12:25;;;;;;;15.07;9.45;;;14.00;99.90;;;;;;5012465;28;20064;-56
2023/09/04 02:14:52;;;;;;;14.40;9.85;;;14.10;99.90;;;;;;5017379;28;20124;-56
2023/09/04 02:17:17;;;;;;;13.98;10.07;;;14.00;99.90;;;;;;5021313;28;20041;-56
2023/09/04 02:19:43;;;;;;;18.02;11.60;;;14.00;99.90;;;;;;5011355;28;20037;-55
2023/09/04 02:22:09;;;;;;;16.50;11.15;;;13.90;99.90;;;;;;5009595;28;20038;-55
2023/09/04 02:24:34;;;;;;;17.80;11.45;;;14.00;99.90;;;;;;5015389;28;20037;-55
2023/09/04 02:27:00;;;;;;;18.98;12.45;;;14.10;99.90;;;;;;5022208;28;20042;-55
2023/09/04 02:29:25;;;;;;;21.15;11.70;;;14.10;99.90;;;;;;5019685;28;20089;-56
2023/09/04 02:31:51;;;;;;;15.90;9.82;;;14.20;99.90;;;;;;5024224;28;20034;-55
2023/09/04 02:34:17;;;;;;;14.00;9.73;;;14.00;99.90;;;;;;5017752;28;20050;-55
2023/09/04 02:36:42;;;;;;;15.90;10.82;;;13.90;99.90;;;;;;5025717;28;20481;-56
2023/09/04 02:39:08;;;;;;;17.25;10.27;;;13.80;99.90;;;;;;5025480;28;20557;-56
2023/09/04 02:41:33;;;;;;;16.55;10.63;;;13.90;99.90;;;;;;5024988;28;20334;-56
2023/09/04 02:43:59;;;;;;;18.35;9.95;;;14.10;99.90;;;;;;5024028;28;20080;-57
2023/09/04 02:46:24;;;;;;;15.65;10.38;;;13.90;99.90;;;;;;5014828;28;20050;-56
2023/09/04 02:48:50;;;;;;;17.48;10.73;;;13.90;99.90;;;;;;5021210;28;20582;-56
2023/09/04 02:51:16;;;;;;;15.38;9.13;;;14.00;99.90;;;;;;5013017;28;20044;-55
2023/09/04 02:53:41;;;;;;;15.13;9.82;;;13.80;99.90;;;;;;5019857;28;20029;-55
2023/09/04 02:56:08;;;;;;;14.43;9.50;;;13.70;99.90;;;;;;5018067;28;20038;-56
2023/09/04 02:58:33;;;;;;;16.88;9.30;;;13.60;99.90;;;;;;5022501;28;20125;-54
2023/09/04 03:00:59;;;;;;;13.82;8.93;;;13.70;99.90;;;;;;5017514;28;20044;-56
2023/09/04 03:03:24;;;;;;;16.38;10.18;;;13.60;99.90;;;;;;5020251;28;20117;-56
2023/09/04 03:05:50;;;;;;;12.00;9.00;;;13.70;99.90;;;;;;5018131;28;20042;-55
2023/09/04 03:08:15;;;;;;;14.85;9.38;;;13.60;99.90;;;;;;5014147;28;20076;-57
2023/09/04 03:10:41;;;;;;;16.75;10.27;;;13.60;99.90;;;;;;5017127;28;20029;-56
2023/09/04 03:13:07;;;;;;;15.05;9.20;;;13.70;99.90;;;;;;5020036;28;20026;-55
2023/09/04 03:15:32;;;;;;;13.93;9.43;;;13.60;99.90;;;;;;5023837;28;20575;-56
2023/09/04 03:17:58;;;;;;;14.82;10.07;;;13.60;99.90;;;;;;5014601;28;20128;-56
2023/09/04 03:20:23;;;;;;;14.98;9.18;;;13.60;99.90;;;;;;5014883;28;20113;-55
2023/09/04 03:22:49;;;;;;;13.90;9.07;;;13.50;99.90;;;;;;5014384;28;20034;-57
2023/09/04 03:25:14;;;;;;;17.23;9.57;;;13.50;99.90;;;;;;5021507;28;20088;-55
2023/09/04 03:27:40;;;;;;;13.02;9.15;;;13.50;99.90;;;;;;5023438;28;20449;-55
2023/09/04 03:30:06;;;;;;;15.18;9.75;;;13.40;99.90;;;;;;5017403;28;20045;-55
2023/09/04 03:32:32;;;;;;;14.23;10.27;;;13.50;99.90;;;;;;5021888;28;20033;-55
2023/09/04 03:34:58;;;;;;;15.45;9.38;;;13.50;99.90;;;;;;5016813;28;20038;-56
2023/09/04 03:37:23;;;;;;;12.27;9.05;;;13.40;99.90;;;;;;5021153;28;20110;-56
2023/09/04 03:39:49;;;;;;;15.02;9.02;;;13.40;99.90;;;;;;5019063;28;20507;-56
2023/09/04 03:42:14;;;;;;;15.07;9.38;;;13.20;99.90;;;;;;5016362;28;20038;-55
2023/09/04 03:44:40;;;;;;;15.38;9.93;;;13.20;99.90;;;;;;5021411;28;20048;-56
2023/09/04 03:47:05;;;;;;;15.13;9.45;;;13.40;99.90;;;;;;5013799;28;20107;-56
2023/09/04 03:49:31;;;;;;;18.20;9.75;;;13.30;99.90;;;;;;5012460;28;20524;-56
2023/09/04 03:51:56;;;;;;;14.45;9.35;;;13.40;99.90;;;;;;5018720;28;20457;-56
2023/09/04 03:54:22;;;;;;;15.05;9.32;;;13.30;99.90;;;;;;5015536;28;21733;-55
2023/09/04 03:56:49;;;;;;;15.60;9.30;;;13.40;99.90;;;;;;5015494;28;20045;-56
2023/09/04 03:59:15;;;;;;;14.27;8.88;;;13.40;99.90;;;;;;5010902;28;20038;-55
2023/09/04 04:01:40;;;;;;;15.00;9.10;;;13.30;99.90;;;;;;5002795;28;20034;-56
2023/09/04 04:04:08;;;;;;;14.88;9.48;;;13.30;99.90;;;;;;5001367;28;20057;-56
2023/09/04 04:06:34;;;;;;;14.02;9.07;;;13.30;99.90;;;;;;5013065;28;20482;-57
2023/09/04 04:08:59;;;;;;;14.85;9.55;;;13.20;99.90;;;;;;5018915;28;20069;-56
2023/09/04 04:11:26;;;;;;;14.15;9.38;;;13.20;99.90;;;;;;5012378;28;20026;-56
2023/09/04 04:13:51;;;;;;;15.30;8.63;;;13.10;99.90;;;;;;5013802;28;20066;-57
2023/09/04 04:16:17;;;;;;;12.40;8.43;;;13.20;99.90;;;;;;5018158;28;20033;-55
2023/09/04 04:18:43;;;;;;;14.80;8.50;;;13.10;99.90;;;;;;5009573;28;20056;-57
2023/09/04 04:21:08;;;;;;;14.05;8.40;;;13.20;99.90;;;;;;5014898;28;20045;-55
2023/09/04 04:23:34;;;;;;;16.33;8.65;;;13.00;99.90;;;;;;5017969;28;20126;-57
2023/09/04 04:26:00;;;;;;;14.45;8.02;;;12.90;99.90;;;;;;5013801;28;20069;-55
2023/09/04 04:28:26;;;;;;;10.27;7.90;;;12.90;99.90;;;;;;5016272;28;20442;-55
2023/09/04 04:30:51;;;;;;;14.25;8.20;;;12.90;99.90;;;;;;5019779;28;20064;-56
2023/09/04 04:33:17;;;;;;;17.38;8.48;;;12.80;99.90;;;;;;5018603;28;20095;-56
2023/09/04 04:35:43;;;;;;;15.20;9.23;;;12.80;99.90;;;;;;5012846;28;20045;-54
2023/09/04 04:38:08;;;;;;;13.73;9.82;;;13.00;99.90;;;;;;5013648;28;20323;-56
2023/09/04 04:40:36;;;;;;;15.55;9.52;;;13.00;99.90;;;;;;5001449;28;20033;-56
2023/09/04 04:43:03;;;;;;;13.30;9.15;;;13.00;99.90;;;;;;5012340;28;20034;-55
2023/09/04 04:45:29;;;;;;;14.52;8.60;;;13.10;99.90;;;;;;5013364;28;20042;-55
2023/09/04 04:47:55;;;;;;;12.68;8.20;;;12.90;99.90;;;;;;5013786;28;20080;-55
2023/09/04 04:50:20;;;;;;;11.85;8.25;;;13.00;99.90;;;;;;5009443;28;20133;-55
2023/09/04 04:52:46;;;;;;;18.13;8.93;;;12.80;99.90;;;;;;5012338;28;20379;-56
2023/09/04 04:55:12;;;;;;;13.45;8.00;;;13.00;99.90;;;;;;5005280;28;20038;-55
2023/09/04 04:57:37;;;;;;;18.02;8.30;;;12.80;99.90;;;;;;5019244;28;20064;-56
2023/09/04 05:00:07;;;;;;;16.40;8.38;;;13.00;99.90;;;;;;5019089;28;20116;-56
2023/09/04 05:02:36;;;;;;;12.07;8.55;;;13.00;99.90;;;;;;5016986;28;20046;-56
2023/09/04 05:05:02;;;;;;;13.00;8.13;;;12.90;99.90;;;;;;5017443;28;20034;-56
2023/09/04 05:07:29;;;;;;;14.70;8.82;;;13.00;99.90;;;;;;5019408;28;20381;-56
2023/09/04 05:09:55;;;;;;;22.02;9.63;;;13.10;99.90;;;;;;5017016;28;20033;-55
2023/09/04 05:12:21;;;;;;;21.30;10.60;;;13.10;99.90;;;;;;5014057;28;20045;-55
2023/09/04 05:14:47;;;;;;;22.30;10.27;;;13.00;99.90;;;;;;5017987;28;20060;-55
2023/09/04 05:17:13;;;;;;;14.10;9.93;;;13.10;99.90;;;;;;5019047;28;20044;-56
2023/09/04 05:19:38;;;;;;;17.30;9.88;;;13.10;99.90;;;;;;5021435;28;20033;-55
2023/09/04 05:22:04;;;;;;;13.77;9.70;;;13.10;99.90;;;;;;5021218;28;20044;-54
2023/09/04 05:24:30;;;;;;;16.65;9.98;;;13.10;99.90;;;;;;5012228;28;20052;-54
2023/09/04 05:26:55;;;;;;;15.48;10.30;;;13.20;99.90;;;;;;5017151;28;20044;-54
2023/09/04 05:29:21;;;;;;;18.00;10.50;;;13.20;99.90;;;;;;5008849;28;20103;-55
2023/09/04 05:31:51;;;;;;;15.80;10.88;;;13.20;99.90;;;;;;5019575;28;20049;-56
2023/09/04 05:34:16;;;;;;;17.48;10.68;;;13.20;99.90;;;;;;5018432;28;20469;-54
2023/09/04 05:36:42;;;;;;;15.23;10.20;;;13.10;99.90;;;;;;5013382;28;20087;-56
2023/09/04 05:39:08;;;;;;;15.93;10.60;;;13.20;99.90;;;;;;5012179;28;20048;-55
2023/09/04 05:41:34;;;;;;;25.30;16.30;;;13.20;99.90;;;;;;5014666;28;20038;-55
2023/09/04 05:43:59;;;;;;;88.63;54.72;;;13.20;99.90;;;;;;5016963;28;20038;-57
2023/09/04 05:46:25;;;;;;;53.00;33.05;;;13.30;99.90;;;;;;5013928;28;20152;-55
2023/09/04 05:48:51;;;;;;;37.53;23.23;;;13.30;99.90;;;;;;5013926;28;20080;-56
2023/09/04 05:51:16;;;;;;;24.80;14.35;;;13.30;99.90;;;;;;5016583;28;20133;-56
2023/09/04 05:53:42;;;;;;;21.90;14.45;;;13.30;99.90;;;;;;5019531;28;20026;-56
2023/09/04 05:56:10;;;;;;;22.00;13.73;;;13.40;99.90;;;;;;5019801;28;20041;-56
2023/09/04 05:58:51;;;;;;;23.90;14.45;;;13.50;99.90;;;;;;5015388;28;20053;-54
2023/09/04 06:01:19;;;;;;;20.13;13.32;;;13.60;99.90;;;;;;5016259;28;20041;-54
2023/09/04 06:03:46;;;;;;;17.48;13.00;;;13.60;99.90;;;;;;5015300;28;20033;-56
2023/09/04 06:06:12;;;;;;;22.10;14.73;;;13.80;99.90;;;;;;5023639;28;20473;-56
2023/09/04 06:08:38;;;;;;;26.88;15.27;;;14.00;99.90;;;;;;5017898;28;20128;-56
2023/09/04 06:11:04;;;;;;;25.30;15.80;;;14.10;99.90;;;;;;5017185;28;20058;-55
2023/09/04 06:13:33;;;;;;;23.95;14.00;;;14.10;99.90;;;;;;5022167;28;20088;-56
2023/09/04 06:16:00;;;;;;;21.23;14.85;;;14.10;99.90;;;;;;5023831;28;20041;-56
2023/09/04 06:18:28;;;;;;;21.00;14.05;;;14.20;99.90;;;;;;5020638;28;20046;-55
2023/09/04 06:20:54;;;;;;;19.45;13.57;;;14.30;99.90;;;;;;5020069;28;20080;-56
2023/09/04 06:23:19;;;;;;;20.33;13.70;;;14.40;99.90;;;;;;5015016;28;20069;-55
2023/09/04 06:25:46;;;;;;;23.90;14.90;;;14.60;99.90;;;;;;5012885;28;20026;-56
2023/09/04 06:28:12;;;;;;;41.70;18.95;;;15.00;99.90;;;;;;5023183;28;20144;-55
2023/09/04 06:30:38;;;;;;;26.08;16.73;;;15.30;99.90;;;;;;5015911;28;20080;-56
2023/09/04 06:33:04;;;;;;;24.60;14.38;;;15.20;99.90;;;;;;5017434;28;20060;-55
2023/09/04 06:35:30;;;;;;;18.25;13.15;;;15.40;99.90;;;;;;5019728;28;20033;-56
2023/09/04 06:37:56;;;;;;;19.55;13.25;;;15.40;99.90;;;;;;5020429;28;20038;-56
2023/09/04 06:40:22;;;;;;;19.27;13.50;;;15.50;99.90;;;;;;5013027;28;20519;-56
2023/09/04 06:42:48;;;;;;;17.48;12.57;;;15.60;99.90;;;;;;5017085;28;20374;-56
2023/09/04 06:45:14;;;;;;;18.35;12.82;;;15.60;99.90;;;;;;5018502;28;20040;-55
2023/09/04 06:47:41;;;;;;;17.55;11.80;;;15.70;99.90;;;;;;4994434;28;20117;-56
2023/09/04 06:50:07;;;;;;;16.33;11.90;;;15.80;99.90;;;;;;5018177;28;20057;-54
2023/09/04 06:52:33;;;;;;;24.15;11.88;;;16.00;99.90;;;;;;5013441;28;20559;-55
2023/09/04 06:54:59;;;;;;;17.42;10.68;;;16.10;99.90;;;;;;5018135;28;20034;-56
2023/09/04 06:57:24;;;;;;;17.90;11.48;;;16.20;99.90;;;;;;5011507;28;20368;-56
2023/09/04 06:59:50;;;;;;;16.60;10.38;;;16.30;99.90;;;;;;5020478;28;20083;-56
2023/09/04 07:02:16;;;;;;;14.77;10.05;;;16.40;99.90;;;;;;5017280;28;20041;-55
2023/09/04 07:04:43;;;;;;;19.05;9.90;;;16.50;99.90;;;;;;5016786;28;20041;-57
2023/09/04 07:07:10;;;;;;;12.55;8.85;;;16.40;99.90;;;;;;5020056;28;20041;-56
2023/09/04 07:09:35;;;;;;;15.07;9.13;;;16.50;99.90;;;;;;5019244;28;21041;-56
2023/09/04 07:12:01;;;;;;;14.00;9.18;;;16.60;99.90;;;;;;5020010;28;20033;-57
2023/09/04 07:14:26;;;;;;;16.27;8.43;;;16.60;99.90;;;;;;5016921;28;20129;-57
2023/09/04 07:16:52;;;;;;;13.13;7.55;;;16.60;99.90;;;;;;5019289;28;20041;-56
2023/09/04 07:19:18;;;;;;;15.02;7.70;;;16.70;99.90;;;;;;5018924;28;20036;-55
2023/09/04 07:21:43;;;;;;;14.75;8.10;;;16.90;99.90;;;;;;5019843;28;20184;-54
2023/09/04 07:24:09;;;;;;;16.58;7.35;;;17.00;99.90;;;;;;5018000;28;20491;-56
2023/09/04 07:26:35;;;;;;;13.73;7.40;;;17.10;99.90;;;;;;5016797;28;20096;-56
2023/09/04 07:29:00;;;;;;;11.52;6.65;;;17.30;99.90;;;;;;5016077;28;20045;-56
2023/09/04 07:31:26;;;;;;;13.80;6.47;;;17.40;99.90;;;;;;5014915;28;20053;-57
2023/09/04 07:33:51;;;;;;;10.43;6.30;;;17.40;99.90;;;;;;5019613;28;20029;-57
2023/09/04 07:36:17;;;;;;;8.70;6.38;;;17.50;99.90;;;;;;5016602;28;20038;-57
2023/09/04 07:38:45;;;;;;;12.10;6.28;;;17.50;99.90;;;;;;5013230;28;20482;-56
2023/09/04 07:41:10;;;;;;;9.18;5.35;;;17.60;99.90;;;;;;5013882;28;20072;-56
2023/09/04 07:43:36;;;;;;;11.05;5.70;;;17.70;99.90;;;;;;5016135;28;20052;-56
2023/09/04 07:46:03;;;;;;;9.57;5.85;;;17.80;99.90;;;;;;5016302;28;20041;-56
2023/09/04 07:48:29;;;;;;;9.75;6.05;;;17.80;99.90;;;;;;5020709;28;20049;-55
2023/09/04 07:50:56;;;;;;;8.35;5.82;;;18.00;99.90;;;;;;5020041;28;20110;-56
2023/09/04 07:53:22;;;;;;;10.98;5.40;;;18.00;99.90;;;;;;5019157;28;20624;-56
2023/09/04 07:55:48;;;;;;;10.98;5.10;;;18.10;99.90;;;;;;5023171;28;20124;-56
2023/09/04 07:58:13;;;;;;;11.93;4.65;;;18.20;99.90;;;;;;5018141;28;20045;-57
2023/09/04 08:00:47;;;;;;;8.35;4.82;;;18.30;99.90;;;;;;5003719;28;20072;-55
2023/09/04 08:03:13;;;;;;;;;;;18.40;99.90;;;;;;5020325;28;20076;-56
2023/09/04 08:05:39;;;;;;;7.25;4.25;;;18.50;99.90;;;;;;5020493;28;20427;-55
2023/09/04 08:08:09;;;;;;;8.10;4.53;;;18.50;99.90;;;;;;5016210;28;20166;-55
2023/09/04 08:10:39;;;;;;;6.50;4.25;;;18.50;99.90;;;;;;5015661;28;20516;-56
2023/09/04 08:13:16;;;;;;;8.57;4.32;;;18.60;99.90;;;;;;5011336;28;20038;-56
2023/09/04 08:15:42;;;;;;;8.90;4.18;;;18.80;99.90;;;;;;5018010;28;20040;-56
2023/09/04 08:18:08;;;;;;;8.80;4.40;;;19.10;99.90;;;;;;5015695;28;20417;-56
2023/09/04 08:20:36;;;;;;;7.88;4.05;;;18.90;99.90;;;;;;5020656;28;20038;-57
2023/09/04 08:23:02;;;;;;;9.13;4.60;;;;;;;;;;5015309;28;20048;-55
2023/09/04 08:25:27;;;;;;;6.38;4.00;;;19.00;99.90;;;;;;5016474;28;20204;-57
2023/09/04 08:27:53;;;;;;;9.07;3.90;;;19.10;99.90;;;;;;5015289;28;20125;-55
2023/09/04 08:30:19;;;;;;;18.55;11.23;;;19.20;99.90;;;;;;5009086;28;20513;-57
2023/09/04 08:32:45;;;;;;;21.08;13.73;;;19.30;99.90;;;;;;5016931;28;20033;-58
2023/09/04 08:35:11;;;;;;;8.52;4.18;;;19.30;99.90;;;;;;5012397;28;20037;-57
2023/09/04 08:37:36;;;;;;;7.25;3.85;;;19.40;99.90;;;;;;5019462;28;20075;-57
2023/09/04 08:40:02;;;;;;;7.28;4.47;;;19.40;99.90;;;;;;5013953;28;20439;-57
2023/09/04 08:42:28;;;;;;;10.43;4.35;;;19.50;99.90;;;;;;5001490;28;20037;-57
2023/09/04 08:44:56;;;;;;;10.27;4.10;;;19.60;99.90;;;;;;5015285;28;20056;-58
2023/09/04 08:47:23;;;;;;;8.63;4.20;;;19.70;99.90;;;;;;5014960;28;20092;-58
2023/09/04 08:49:50;;;;;;;12.80;4.63;;;19.80;99.90;;;;;;5017273;28;20084;-57
2023/09/04 08:52:16;;;;;;;7.72;4.30;;;19.90;99.90;;;;;;5013586;28;20029;-57
2023/09/04 08:54:42;;;;;;;7.07;3.67;;;20.00;99.90;;;;;;5017020;28;20056;-56
2023/09/04 08:57:08;;;;;;;10.07;4.38;;;20.00;99.90;;;;;;5014743;28;20049;-57
2023/09/04 08:59:34;;;;;;;6.82;4.07;;;20.00;99.90;;;;;;5017601;28;20040;-57
2023/09/04 09:02:04;;;;;;;7.20;4.22;;;20.20;99.90;;;;;;5016873;28;20033;-57
2023/09/04 09:04:30;;;;;;;8.98;4.20;;;;;;;;;;5018466;28;20037;-56
2023/09/04 09:06:57;;;;;;;7.32;4.07;;;20.20;99.90;;;;;;5017815;28;20041;-57
2023/09/04 09:09:23;;;;;;;6.60;3.35;;;20.40;99.90;;;;;;5017083;28;20050;-56
2023/09/04 09:11:54;;;;;;;6.45;4.15;;;20.40;99.90;;;;;;5014877;28;20488;-57
2023/09/04 09:14:21;;;;;;;8.27;3.78;;;20.50;99.90;;;;;;5020353;28;20401;-57
2023/09/04 09:16:47;;;;;;;8.55;4.13;;;20.50;99.90;;;;;;5015802;28;20137;-58
2023/09/04 09:19:16;;;;;;;8.27;4.13;;;;;;;;;;5014214;28;20124;-58
2023/09/04 09:21:43;;;;;;;7.53;3.90;;;;;;;;;;5013048;28;20603;-57
2023/09/04 09:24:09;;;;;;;5.72;3.45;;;;;;;;;;5014405;28;20120;-57
2023/09/04 09:26:37;;;;;;;5.63;3.67;;;;;;;;;;5016597;28;20120;-58
2023/09/04 09:29:03;;;;;;;8.02;3.75;;;;;;;;;;5019461;28;20077;-58
2023/09/04 09:31:30;;;;;;;4.93;3.38;;;;;;;;;;5014568;28;20033;-57
2023/09/04 09:33:56;;;;;;;9.40;4.22;;;;;;;;;;5012056;28;20418;-56
2023/09/04 09:36:22;;;;;;;4.75;3.63;;;;;;;;;;5010802;28;20045;-58
2023/09/04 09:38:48;;;;;;;7.07;3.65;;;;;;;;;;5014220;28;20045;-58
2023/09/04 09:41:14;;;;;;;8.40;3.45;;;;;;;;;;5016818;28;20083;-57
2023/09/04 09:43:43;;;;;;;5.82;3.47;;;;;;;;;;5012148;28;20432;-57
2023/09/04 09:46:10;;;;;;;8.90;3.80;;;;;;;;;;5018633;28;20037;-56
2023/09/04 09:48:39;;;;;;;5.63;3.50;;;;;;;;;;5019384;28;20025;-57
2023/09/04 09:51:10;;;;;;;6.72;3.70;;;;;;;;;;5020292;28;20109;-58
2023/09/04 09:53:49;;;;;;;5.03;3.45;;;;;;;;;;5010367;28;20120;-58
2023/09/04 09:56:16;;;;;;;6.43;3.50;;;;;;;;;;5019342;28;20038;-58
2023/09/04 09:58:43;;;;;;;7.10;3.42;;;;;;;;;;5019626;28;20491;-57
2023/09/04 10:01:09;;;;;;;5.13;3.15;;;;;;;;;;5017112;28;20030;-57
2023/09/04 10:03:36;;;;;;;7.72;3.20;;;;;;;;;;5016953;28;20030;-58
2023/09/04 10:06:07;;;;;;;6.30;3.35;;;;;;;;;;5020185;28;20159;-57
2023/09/04 10:08:38;;;;;;;9.27;4.30;;;;;;;;;;5017608;28;20664;-58
2023/09/04 10:11:06;;;;;;;6.85;3.75;;;;;;;;;;5021327;28;20124;-57
2023/09/04 10:13:35;;;;;;;5.07;3.38;;;;;;;;;;5017806;28;20042;-58
2023/09/04 10:16:03;;;;;;;8.55;3.67;;;;;;;;;;5021113;28;20650;-58
2023/09/04 10:18:30;;;;;;;10.73;3.97;;;;;;;;;;5014040;28;20029;-57
2023/09/04 10:20:58;;;;;;;7.57;3.72;;;;;;;;;;5023384;28;20075;-57
2023/09/04 10:23:24;;;;;;;5.90;3.75;;;;;;;;;;5015121;28;20363;-57
2023/09/04 10:25:58;;;;;;;6.43;3.63;;;;;;;;;;5022212;28;20796;-57
2023/09/04 10:28:30;;;;;;;5.10;3.33;;;;;;;;;;5017296;28;20469;-57
2023/09/04 10:30:58;;;;;;;6.95;3.67;;;;;;;;;;5020139;28;20501;-55
2023/09/04 10:33:24;;;;;;;6.30;3.83;;;;;;;;;;5019679;28;20045;-57
2023/09/04 10:35:50;;;;;;;6.07;3.33;;;;;;;;;;5021765;28;20064;-57
2023/09/04 10:38:17;;;;;;;8.25;3.42;;;;;;;;;;5021404;28;20415;-57
2023/09/04 10:40:43;;;;;;;5.13;3.55;;;;;;;;;;5023840;28;20037;-56
2023/09/04 10:43:11;;;;;;;7.13;3.58;;;;;;;;;;5021373;28;20053;-57
2023/09/04 10:45:37;;;;;;;6.38;3.90;;;;;;;;;;5009744;28;20030;-57
2023/09/04 10:48:04;;;;;;;7.60;3.60;;;;;;;;;;5011256;28;20043;-57
2023/09/04 10:50:32;;;;;;;6.55;3.45;;;;;;;;;;5010797;28;20113;-56
2023/09/04 10:53:00;;;;;;;8.35;3.55;;;;;;;;;;5020758;28;20551;-58
2023/09/04 10:55:27;;;;;;;7.20;3.20;;;;;;;;;;5021345;28;20042;-57
2023/09/04 10:58:00;;;;;;;7.25;3.28;;;;;;;;;;5024208;28;20481;-58
2023/09/04 11:00:28;;;;;;;4.90;3.20;;;;;;;;;;5014920;28;20046;-58
2023/09/04 11:02:54;;;;;;;8.35;3.28;;;;;;;;;;5020202;28;20477;-57
2023/09/04 11:05:20;;;;;;;9.18;3.25;;;;;;;;;;5019092;28;20034;-57
2023/09/04 11:07:46;;;;;;;6.45;3.28;;;;;;;;;;5020901;28;20399;-57
2023/09/04 11:10:17;;;;;;;5.97;3.17;;;;;;;;;;5015363;28;20041;-57
2023/09/04 11:12:43;;;;;;;6.53;2.90;;;;;;;;;;5020574;28;20144;-58
2023/09/04 11:15:11;;;;;;;8.30;3.05;;;;;;;;;;5017754;28;20042;-59
2023/09/04 11:17:38;;;;;;;5.75;2.88;;;;;;;;;;5014245;28;20055;-58
2023/09/04 11:20:04;;;;;;;6.03;2.88;;;;;;;;;;5020331;28;20091;-58
2023/09/04 11:22:33;;;;;;;6.22;2.90;;;;;;;;;;5020221;28;20057;-58
2023/09/04 11:24:59;;;;;;;5.30;2.85;;;;;;;;;;5020890;28;20046;-57
2023/09/04 11:27:25;;;;;;;7.03;3.00;;;;;;;;;;5013321;28;20033;-58
2023/09/04 11:29:52;;;;;;;4.00;2.85;;;;;;;;;;5020152;28;20080;-58
2023/09/04 11:32:19;;;;;;;7.63;3.10;;;;;;;;;;5017035;28;20042;-56
2023/09/04 11:34:45;;;;;;;5.10;2.70;;;;;;;;;;5014804;28;20121;-57
2023/09/04 11:37:12;;;;;;;5.65;2.83;;;;;;;;;;5012887;28;20328;-57
2023/09/04 11:39:55;;;;;;;4.25;2.75;;;;;;;;;;5022050;28;20041;-58
2023/09/04 11:42:21;;;;;;;7.23;3.13;;;;;;;;;;5006639;28;20027;-58
2023/09/04 11:44:48;;;;;;;7.43;3.25;;;;;;;;;;5017479;28;20117;-57
2023/09/04 11:47:14;;;;;;;13.77;6.55;;;;;;;;;;5018847;28;20041;-58
2023/09/04 11:49:40;;;;;;;6.38;2.90;;;;;;;;;;5014223;28;20381;-58
2023/09/04 11:52:07;;;;;;;4.68;2.53;;;;;;;;;;5011054;28;20357;-57
2023/09/04 11:54:36;;;;;;;7.03;3.10;;;;;;;;;;5017755;28;20034;-59
2023/09/04 11:57:03;;;;;;;5.63;2.90;;;;;;;;;;5017441;28;20041;-57
2023/09/04 11:59:33;;;;;;;4.32;2.80;;;;;;;;;;5013768;28;20125;-59
2023/09/04 12:01:59;;;;;;;6.13;2.78;;;;;;;;;;5017195;28;20052;-59
2023/09/04 12:04:26;;;;;;;6.82;2.80;;;;;;;;;;5011717;28;20136;-57
2023/09/04 12:06:52;;;;;;;4.60;3.08;;;;;;;;;;5021777;28;20092;-59
2023/09/04 12:09:18;;;;;;;5.90;3.08;;;;;;;;;;5019612;28;20113;-58
2023/09/04 12:11:44;;;;;;;7.03;2.70;;;;;;;;;;5018412;28;20033;-59
2023/09/04 12:14:10;;;;;;;7.65;2.80;;;;;;;;;;5000171;28;20037;-58
2023/09/04 12:16:36;;;;;;;8.43;2.80;;;;;;;;;;4999770;28;20034;-56
2023/09/04 12:19:05;;;;;;;6.50;2.47;;;;;;;;;;5016530;28;20049;-58
2023/09/04 12:21:31;;;;;;;5.18;2.90;;;;;;;;;;5017204;28;20439;-58
2023/09/04 12:23:58;;;;;;;4.93;2.72;;;;;;;;;;5017539;28;20045;-58
2023/09/04 12:26:24;;;;;;;5.82;2.50;;;;;;;;;;5019286;28;20042;-58
2023/09/04 12:28:52;;;;;;;5.63;3.42;;;;;;;;;;5015481;28;20822;-57
2023/09/04 12:31:23;;;;;;;6.53;3.08;;;;;;;;;;5018125;28;20041;-57
2023/09/04 12:33:52;;;;;;;4.50;2.42;;;;;;;;;;5020533;28;20053;-57
2023/09/04 12:36:20;;;;;;;4.63;2.58;;;;;;;;;;5012381;28;20067;-56
2023/09/04 12:38:46;;;;;;;6.78;2.70;;;;;;;;;;5016697;28;20120;-55
2023/09/04 12:41:12;;;;;;;4.82;2.70;;;;;;;;;;5014013;28;20671;-56
2023/09/04 12:43:38;;;;;;;8.05;3.28;;;;;;;;;;5017166;28;20033;-56
2023/09/04 12:46:04;;;;;;;4.60;3.03;;;;;;;;;;5018448;28;20041;-56
2023/09/04 12:48:31;;;;;;;4.70;2.75;;;;;;;;;;5001800;28;20079;-54
2023/09/04 12:50:57;;;;;;;7.43;2.80;;;;;;;;;;5019689;28;20044;-55
2023/09/04 12:53:23;;;;;;;5.93;2.63;;;;;;;;;;5011877;28;20164;-55
2023/09/04 12:55:49;;;;;;;6.32;2.60;;;;;;;;;;5017970;28;20065;-56
2023/09/04 12:58:15;;;;;;;5.90;3.10;;;;;;;;;;5010159;28;20072;-55
2023/09/04 13:00:42;;;;;;;5.95;2.75;;;;;;;;;;5020910;28;20080;-56
2023/09/04 13:03:09;;;;;;;5.75;2.78;;;;;;;;;;5016120;28;20041;-55
2023/09/04 13:05:35;;;;;;;5.97;2.70;;;;;;;;;;5022850;28;20524;-56
2023/09/04 13:08:01;;;;;;;6.65;2.90;;;;;;;;;;5017564;28;20309;-56